• Join FlightAware (Why Join?)
  • Login
  • US Flag 
05:25AM EDT


 

Airport Tracker/Info


-or-


 

Live Flight TrackerFlight Track Log ✈ UCA846 ✈ 24-Sep-2013 ✈ KEWR - KBUF

Flight Track Log - Related Links

Times and Time Zones

All times are in EDT time to prevent confusion due to time zone crossing. See the UCA846 flight status page for this flight to view local times or setup timezone preferences in your user account.

Time Position Orientation Groundspeed Altitude Reporting Facility
EDT Latitude Longitude Course Direction KTS MPH feet Rate Location/Type
12:10PM 40.7167 -74.1333 339° North 159 183 1,700  Level New York TRACON
12:11PM 40.7500 -74.1500 339° North 177 204 3,300 1,560 Climbing New York TRACON
12:12PM 40.7833 -74.2000 311° West 176 203 4,700 1,380 Climbing New York TRACON
12:13PM 40.8167 -74.2500 311° West 177 204 6,000 1,320 Climbing New York TRACON
12:14PM 40.8500 -74.3000 311° West 179 206 7,400 1,260 Climbing New York TRACON
12:15PM 40.8833 -74.3500 311° West 187 215 8,600 1,200 Climbing New York TRACON
12:16PM 40.9167 -74.3833 323° Northwest 190 219 9,700 840 Climbing New York TRACON
12:16PM 40.9406 -74.4244 308° West 191 220 10,000 120 Climbing New York Center
12:17PM 40.9803 -74.4817 313° West 226 260 10,000  Level New York Center
12:18PM 41.0244 -74.5417 314° West 230 265 10,000  Level New York Center
12:19PM 41.0722 -74.6050 315° West 237 273 10,100 660 Climbing New York Center
12:20PM 41.1100 -74.6594 313° West 229 264 11,400 900 Climbing New York Center
12:21PM 41.1478 -74.7167 311° West 207 238 12,000 300 Climbing New York Center
12:22PM 41.1767 -74.7844 300° West 215 247 12,000  Level New York Center
12:23PM 41.2094 -74.8636 299° West 228 262 12,000  Level New York Center
12:24PM 41.2442 -74.9375 302° West 237 273 12,000  Level New York Center
12:25PM 41.2769 -75.0142 300° West 237 273 12,000  Level New York Center
12:26PM 41.3078 -75.0850 300° West 237 273 12,000  Level New York Center
12:27PM 41.3442 -75.1703 300° West 237 273 12,000  Level New York Center
12:28PM 41.3769 -75.2444 301° West 237 273 12,000  Level New York Center
12:29PM 41.4092 -75.3239 298° West 242 278 12,000  Level New York Center
12:30PM 41.4397 -75.3953 300° West 242 278 12,000  Level New York Center
12:31PM 41.4722 -75.4722 299° West 242 278 12,000  Level New York Center
12:32PM 41.5061 -75.5578 298° West 242 278 12,000  Level New York Center
12:33PM 41.5383 -75.6375 298° West 248 285 12,000  Level New York Center
12:34PM 41.5725 -75.7178 300° West 248 285 12,000  Level New York Center
12:35PM 41.6025 -75.7947 298° West 243 280 12,000  Level New York Center
12:36PM 41.6328 -75.8692 299° West 249 287 12,000  Level New York Center
12:37PM 41.6667 -75.9497 299° West 249 287 12,000  Level New York Center
12:38PM 41.7006 -76.0328 299° West 244 281 12,000  Level New York Center
12:39PM 41.7306 -76.1103 297° West 244 281 12,000  Level New York Center
12:40PM 41.7622 -76.1906 298° West 249 287 12,000  Level New York Center
12:41PM 41.7922 -76.2625 299° West 249 287 12,000  Level New York Center
12:42PM 41.8219 -76.3375 298° West 244 281 12,000  Level New York Center
12:43PM 41.8536 -76.4208 297° West 249 287 12,000  Level New York Center
12:44PM 41.8853 -76.4986 299° West 249 287 12,000  Level New York Center
12:45PM 41.9189 -76.5769 300° West 249 287 12,000  Level New York Center
12:46PM 41.9483 -76.6575 296° West 249 287 12,000  Level New York Center
12:49PM 42.0225 -76.8394 299° West 242 278 12,000  Level Cleveland Center
12:50PM 42.0597 -76.9336 298° West 240 276 12,000  Level Cleveland Center
12:51PM 42.0908 -77.0133 298° West 240 276 12,000  Level Cleveland Center
12:52PM 42.1192 -77.0967 295° West 246 283 12,000  Level Cleveland Center
12:53PM 42.1458 -77.1792 294° West 241 277 12,000  Level Cleveland Center
12:54PM 42.1733 -77.2619 294° West 240 276 12,000  Level Cleveland Center
12:55PM 42.2008 -77.3447 294° West 242 278 12,000  Level Cleveland Center
12:56PM 42.2336 -77.4444 294° West 242 278 12,000  Level Cleveland Center
12:57PM 42.2608 -77.5281 294° West 243 280 12,100  Climbing Cleveland Center
12:58PM 42.2883 -77.6128 294° West 244 281 12,100 -240 Level Cleveland Center
12:59PM 42.3156 -77.6975 294° West 245 282 11,600 -540 Descending Cleveland Center
01:00PM 42.3444 -77.7892 293° West 260 299 11,000 -600 Descending Cleveland Center
01:01PM 42.3731 -77.8764 294° West 255 293 10,400 -1,020 Descending Cleveland Center
01:02PM 42.4072 -77.9833 293° West 257 296 9,000 -1,260 Descending Cleveland Center
01:03PM 42.4372 -78.0744 294° West 263 303 7,900 -1,080 Descending Cleveland Center
01:04PM 42.4656 -78.1675 292° West 266 306 6,800 -960 Descending Cleveland Center
01:05PM 42.4953 -78.2581 294° West 264 304 6,000 -480 Descending Cleveland Center
01:06PM 42.5339 -78.3325 305° West 256 295 5,900 -480 Descending Cleveland Center
01:07PM 42.5983 -78.3644 340° North 248 285 5,100 -480 Descending Cleveland Center
01:08PM 42.6611 -78.4033 336° Northwest 249 287 5,000 -180 Descending Cleveland Center
01:09PM 42.7331 -78.4461 336° Northwest 244 281 4,800 -360 Descending Cleveland Center
01:10PM 42.7975 -78.4844 336° Northwest 243 280 4,300 -420 Descending Cleveland Center
01:11PM 42.8617 -78.5256 335° Northwest 244 281 4,000 -420 Descending Cleveland Center
01:12PM 42.9206 -78.5767 328° Northwest 240 276 3,500 -660 Descending Cleveland Center
01:14PM 42.9556 -78.6278 313° West 197 227 2,700 -780 Descending Cleveland Center
01:14PM 42.9667 -78.6500 304° West 140 161 2,200 -960 Descending Buffalo TRACON
01:15PM 42.9667 -78.7000 270° West 118 136 1,200 -1,020 Descending Buffalo TRACON
01:18PM 42.9333 -78.7167 334° Northwest  Level FlightAware Approximate